Parker, South Dakota
Current Conditions -  °F | °C
As of 2:56 AM on Sunday 26 Oct 2014 (Local Time) from KFSD Reporting Station
Clear Clear  
Wind Chill: 38°   Ceiling: Unl
Heat Index: 41°   Visibility: 10mi
Dew Point: 32°   Wind: 5mph
Humidity: 70%   Direction: 70°ENE
Pressure: 29.98"   Gusts: NA
Location:  43.4°N, 97.14°W
Report Text: KFSD 260756Z AUTO 07004KT 10SM CLR 05/00 A2998 RMK AO2 SLP155 T00500000
Loading
Personal Weather Stations






























Interactive Weather Map
Tropical Storm Tracking
New forecast layout! Learn more

10-Day Weather Forecast

Advertisements
Track Severe Weather on mobile